createdAt,value
2023-10-12T00:00:37.487Z,23.92
2023-10-12T00:03:06.994Z,23.90
2023-10-12T00:05:35.806Z,23.90
2023-10-12T00:08:11.303Z,23.90
2023-10-12T00:10:45.510Z,23.89
2023-10-12T00:13:13.899Z,23.89
2023-10-12T00:15:47.563Z,23.88
2023-10-12T00:18:18.335Z,23.87
2023-10-12T00:20:51.755Z,23.86
2023-10-12T00:23:20.293Z,23.86
2023-10-12T00:25:55.820Z,23.85
2023-10-12T00:28:30.563Z,23.84
2023-10-12T00:30:59.458Z,23.83
2023-10-12T00:33:27.624Z,23.84
2023-10-12T00:36:01.893Z,23.82
2023-10-12T00:38:31.796Z,23.82
2023-10-12T00:41:05.171Z,23.80
2023-10-12T00:43:38.482Z,23.80
2023-10-12T00:46:22.088Z,23.81
2023-10-12T00:48:51.783Z,23.80
2023-10-12T00:51:20.120Z,23.80
2023-10-12T00:53:57.255Z,23.81
2023-10-12T00:56:27.312Z,23.80
2023-10-12T00:58:56.850Z,23.78
2023-10-12T01:01:25.270Z,23.79
2023-10-12T01:03:54.054Z,23.79
2023-10-12T01:06:30.585Z,23.78
2023-10-12T01:09:01.507Z,23.78
2023-10-12T01:11:35.678Z,23.77
2023-10-12T01:14:16.544Z,23.75
2023-10-12T01:16:47.204Z,23.75
2023-10-12T01:19:22.747Z,23.74
2023-10-12T01:21:53.340Z,23.73
2023-10-12T01:24:25.782Z,23.74
2023-10-12T01:26:54.679Z,23.73
2023-10-12T01:29:22.936Z,23.70
2023-10-12T01:31:55.090Z,23.71
2023-10-12T01:34:26.251Z,23.70
2023-10-12T01:36:59.524Z,23.70
2023-10-12T01:39:30.216Z,23.68
2023-10-12T01:41:58.460Z,23.68
2023-10-12T01:44:26.730Z,23.68
2023-10-12T01:46:54.840Z,23.68
2023-10-12T01:49:22.990Z,23.66
2023-10-12T01:51:51.068Z,23.68
2023-10-12T01:54:25.868Z,23.68
2023-10-12T01:56:54.535Z,23.67
2023-10-12T01:59:22.782Z,23.67
2023-10-12T02:02:11.222Z,23.67
2023-10-12T02:04:41.677Z,23.68
2023-10-12T02:07:11.941Z,23.66
2023-10-12T02:09:43.287Z,23.66
2023-10-12T02:12:14.645Z,23.65
2023-10-12T02:14:42.822Z,23.65
2023-10-12T02:17:10.942Z,23.64
2023-10-12T02:19:43.614Z,23.63
2023-10-12T02:22:20.981Z,23.62
2023-10-12T02:25:00.532Z,23.62
2023-10-12T02:27:28.728Z,23.61
2023-10-12T02:29:57.942Z,23.60
2023-10-12T02:32:26.836Z,23.60
2023-10-12T02:34:58.654Z,23.60
2023-10-12T02:37:29.111Z,23.59
2023-10-12T02:39:58.724Z,23.59
2023-10-12T02:42:41.755Z,23.58
2023-10-12T02:45:19.056Z,23.57
2023-10-12T02:47:50.167Z,23.57
2023-10-12T02:50:28.495Z,23.56
2023-10-12T02:52:56.770Z,23.56
2023-10-12T02:55:41.430Z,23.55
2023-10-12T02:58:20.776Z,23.56
2023-10-12T03:00:56.739Z,23.56
2023-10-12T03:03:27.762Z,23.55
2023-10-12T03:05:59.990Z,23.55
2023-10-12T03:08:32.768Z,23.55
2023-10-12T03:11:14.024Z,23.55
2023-10-12T03:13:44.124Z,23.54
2023-10-12T03:16:22.163Z,23.53
2023-10-12T03:18:58.859Z,23.52
2023-10-12T03:21:29.097Z,23.52
2023-10-12T03:23:59.070Z,23.49
2023-10-12T03:26:28.643Z,23.48
2023-10-12T03:29:03.907Z,23.48
2023-10-12T03:31:37.589Z,23.48
2023-10-12T03:34:18.180Z,23.48
2023-10-12T03:36:49.599Z,23.47
2023-10-12T03:39:29.135Z,23.48
2023-10-12T03:42:11.299Z,23.46
2023-10-12T03:44:50.175Z,23.46
2023-10-12T03:47:25.470Z,23.46
2023-10-12T03:50:01.532Z,23.46
2023-10-12T03:52:35.703Z,23.45
2023-10-12T03:55:25.350Z,23.44
2023-10-12T03:58:07.507Z,23.43
2023-10-12T04:00:42.755Z,23.43
2023-10-12T04:03:19.984Z,23.44
2023-10-12T04:05:52.771Z,23.43
2023-10-12T04:08:40.747Z,23.44
2023-10-12T04:11:41.326Z,23.41
2023-10-12T04:14:45.210Z,23.42
2023-10-12T04:17:23.249Z,23.42
2023-10-12T04:20:05.285Z,23.42
2023-10-12T04:22:42.803Z,23.41
2023-10-12T04:25:14.739Z,23.40
2023-10-12T04:27:51.749Z,23.38
2023-10-12T04:30:22.034Z,23.38
2023-10-12T04:33:13.169Z,23.38
2023-10-12T04:36:02.971Z,23.36
2023-10-12T04:38:46.654Z,23.37
2023-10-12T04:41:26.614Z,23.36
2023-10-12T04:43:55.173Z,23.36
2023-10-12T04:46:40.982Z,23.35
2023-10-12T04:49:23.407Z,23.35
2023-10-12T04:52:09.984Z,23.34
2023-10-12T04:54:50.811Z,23.34
2023-10-12T04:57:19.073Z,23.34
2023-10-12T04:59:52.305Z,23.33
2023-10-12T05:02:31.999Z,23.33
2023-10-12T05:05:37.130Z,23.33
2023-10-12T05:08:06.430Z,23.33
2023-10-12T05:10:47.631Z,23.32
2023-10-12T05:13:23.168Z,23.32
2023-10-12T05:16:03.958Z,23.31
2023-10-12T05:18:34.063Z,23.31
2023-10-12T05:21:02.358Z,23.31
2023-10-12T05:23:31.174Z,23.30
2023-10-12T05:26:11.452Z,23.30
2023-10-12T05:28:49.162Z,23.31
2023-10-12T05:31:21.979Z,23.31
2023-10-12T05:34:18.255Z,23.31
2023-10-12T05:36:46.965Z,23.32
2023-10-12T05:39:15.172Z,23.33
2023-10-12T05:41:43.260Z,23.32
2023-10-12T05:44:14.976Z,23.33
2023-10-12T05:46:46.498Z,23.34
2023-10-12T05:49:16.181Z,23.35
2023-10-12T05:51:45.882Z,23.36
2023-10-12T05:54:16.583Z,23.37
2023-10-12T05:56:45.707Z,23.37
2023-10-12T05:59:15.291Z,23.39
2023-10-12T06:01:47.549Z,23.40
2023-10-12T06:04:17.487Z,23.42
2023-10-12T06:06:45.733Z,23.43
2023-10-12T06:09:14.944Z,23.44
2023-10-12T06:11:43.692Z,23.46
2023-10-12T06:14:11.940Z,23.46
2023-10-12T06:16:41.951Z,23.47
2023-10-12T06:19:19.708Z,23.48
2023-10-12T06:21:52.406Z,23.50
2023-10-12T06:24:32.492Z,23.52
2023-10-12T06:27:03.407Z,23.53
2023-10-12T06:29:33.892Z,23.54
2023-10-12T06:32:03.397Z,23.55
2023-10-12T06:34:31.572Z,23.58
2023-10-12T06:37:12.675Z,23.60
2023-10-12T06:39:58.102Z,23.62
2023-10-12T06:42:28.750Z,23.65
2023-10-12T06:44:55.891Z,23.67
2023-10-12T06:47:30.117Z,23.68
2023-10-12T06:50:01.591Z,23.73
2023-10-12T06:52:31.365Z,23.74
2023-10-12T06:55:01.184Z,23.77
2023-10-12T06:57:37.074Z,23.79
2023-10-12T07:00:34.882Z,23.81
2023-10-12T07:03:02.289Z,23.82
2023-10-12T07:05:34.791Z,23.85
2023-10-12T07:08:08.779Z,23.86
2023-10-12T07:10:36.866Z,23.86
2023-10-12T07:13:05.896Z,23.87
2023-10-12T07:15:41.799Z,23.90
2023-10-12T07:18:16.205Z,23.92
2023-10-12T07:20:47.684Z,23.94
2023-10-12T07:23:17.209Z,23.96
2023-10-12T07:25:46.829Z,23.97
2023-10-12T07:28:19.899Z,23.96
2023-10-12T07:31:02.235Z,23.98
2023-10-12T07:33:32.378Z,24.02
2023-10-12T07:36:11.162Z,24.03
2023-10-12T07:38:41.714Z,24.06
2023-10-12T07:41:10.932Z,24.08
2023-10-12T07:43:39.611Z,24.10
2023-10-12T07:46:14.633Z,24.12
2023-10-12T07:48:43.913Z,24.13
2023-10-12T07:51:17.175Z,24.17
2023-10-12T07:53:46.754Z,24.19
2023-10-12T07:56:18.189Z,24.20
2023-10-12T07:58:49.045Z,24.21
2023-10-12T08:01:40.311Z,24.24
2023-10-12T08:04:20.929Z,24.24
2023-10-12T08:06:50.131Z,24.26
2023-10-12T08:09:43.482Z,24.27
2023-10-12T08:15:12.200Z,24.32
2023-10-12T08:17:47.187Z,24.31
2023-10-12T08:20:29.304Z,24.36
2023-10-12T08:23:03.387Z,24.39
2023-10-12T08:25:39.446Z,24.43
2023-10-12T08:28:21.105Z,24.45
2023-10-12T08:30:50.016Z,24.48
2023-10-12T08:33:38.582Z,24.50
2023-10-12T08:36:24.557Z,24.52
2023-10-12T08:38:55.638Z,24.54
2023-10-12T08:41:25.782Z,24.56
2023-10-12T08:43:57.602Z,24.59
2023-10-12T08:46:44.830Z,24.62
2023-10-12T08:49:26.736Z,24.63
2023-10-12T08:52:09.094Z,24.66
2023-10-12T08:54:38.575Z,24.68
2023-10-12T08:57:13.914Z,24.71
2023-10-12T08:59:43.742Z,24.70
2023-10-12T09:02:21.039Z,24.70
2023-10-12T09:04:51.294Z,24.73
2023-10-12T09:07:22.505Z,24.75
2023-10-12T09:09:56.902Z,24.75
2023-10-12T09:12:24.865Z,24.78
2023-10-12T09:14:56.291Z,24.79
2023-10-12T09:17:34.061Z,24.84
2023-10-12T09:20:19.983Z,24.86
2023-10-12T09:22:57.863Z,24.86
2023-10-12T09:25:52.638Z,24.89
2023-10-12T09:28:27.325Z,24.90
2023-10-12T09:31:01.634Z,24.93
2023-10-12T09:33:55.385Z,24.95
2023-10-12T09:36:23.778Z,24.97
2023-10-12T09:38:57.021Z,25.00
2023-10-12T09:41:27.814Z,25.00
2023-10-12T09:43:55.898Z,25.05
2023-10-12T09:46:27.267Z,25.07
2023-10-12T09:48:59.875Z,25.09
2023-10-12T09:51:29.982Z,25.11
2023-10-12T09:54:00.517Z,25.13
2023-10-12T09:56:34.948Z,25.16
2023-10-12T09:59:09.303Z,25.16
2023-10-12T10:01:50.856Z,25.20
2023-10-12T10:04:36.210Z,25.21
2023-10-12T10:07:19.990Z,25.23
2023-10-12T10:09:49.610Z,25.26
2023-10-12T10:12:19.473Z,25.27
2023-10-12T10:14:52.988Z,25.29
2023-10-12T10:17:25.378Z,25.30
2023-10-12T10:20:28.323Z,25.32
2023-10-12T10:22:58.725Z,25.33
2023-10-12T10:25:28.784Z,25.34
2023-10-12T10:27:58.225Z,25.36
2023-10-12T10:30:29.696Z,25.38
2023-10-12T10:33:08.722Z,25.39
2023-10-12T10:36:13.708Z,25.40
2023-10-12T10:38:54.883Z,25.42
2023-10-12T10:41:38.640Z,25.42
2023-10-12T10:44:10.113Z,25.44
2023-10-12T10:46:41.601Z,25.45
2023-10-12T10:49:32.029Z,25.48
2023-10-12T10:52:15.073Z,25.48
2023-10-12T10:54:57.822Z,25.49
2023-10-12T10:57:33.439Z,25.51
2023-10-12T11:00:01.849Z,25.52
2023-10-12T11:02:29.860Z,25.55
2023-10-12T11:05:01.340Z,25.55
2023-10-12T11:07:30.840Z,25.56
2023-10-12T11:10:20.726Z,25.58
2023-10-12T11:12:49.597Z,25.59
2023-10-12T11:15:22.805Z,25.59
2023-10-12T11:17:58.608Z,25.61
2023-10-12T11:20:51.922Z,25.62
2023-10-12T11:23:21.498Z,25.63
2023-10-12T11:25:49.553Z,25.64
2023-10-12T11:28:22.073Z,25.65
2023-10-12T11:30:53.497Z,25.64
2023-10-12T11:33:29.675Z,25.66
2023-10-12T11:36:02.176Z,25.65
2023-10-12T11:38:32.356Z,25.66
2023-10-12T11:41:13.193Z,25.69
2023-10-12T11:43:51.102Z,25.69
2023-10-12T11:46:19.268Z,25.69
2023-10-12T11:48:47.762Z,25.69
2023-10-12T11:51:16.219Z,25.70
2023-10-12T11:53:45.725Z,25.72
2023-10-12T11:56:15.037Z,25.72
2023-10-12T11:58:48.969Z,25.70
2023-10-12T12:01:17.091Z,25.72
2023-10-12T12:03:46.845Z,25.72
2023-10-12T12:06:20.235Z,25.74
2023-10-12T12:08:50.164Z,25.74
2023-10-12T12:11:20.712Z,25.74
2023-10-12T12:13:54.056Z,25.75
2023-10-12T12:16:24.988Z,25.75
2023-10-12T12:18:54.510Z,25.75
2023-10-12T12:21:32.574Z,25.75
2023-10-12T12:24:16.376Z,25.76
2023-10-12T12:26:47.881Z,25.76
2023-10-12T12:29:23.126Z,25.76
2023-10-12T12:31:51.310Z,25.77
2023-10-12T12:34:39.373Z,25.76
2023-10-12T12:37:09.011Z,25.76
2023-10-12T12:39:38.466Z,25.77
2023-10-12T12:42:10.495Z,25.77
2023-10-12T12:44:38.677Z,25.77
2023-10-12T12:47:08.369Z,25.77
2023-10-12T12:49:36.688Z,25.77
2023-10-12T12:52:05.260Z,25.78
2023-10-12T12:54:36.634Z,25.78
2023-10-12T12:57:06.385Z,25.79
2023-10-12T12:59:34.459Z,25.79
2023-10-12T13:02:04.486Z,25.80
2023-10-12T13:04:35.694Z,25.80
2023-10-12T13:07:10.183Z,25.81
2023-10-12T13:09:38.472Z,25.82
2023-10-12T13:12:08.240Z,25.82
2023-10-12T13:14:36.384Z,25.82
2023-10-12T13:17:04.619Z,25.82
2023-10-12T13:19:45.894Z,25.83
2023-10-12T13:22:14.469Z,25.83
2023-10-12T13:24:44.540Z,25.83
2023-10-12T13:27:21.582Z,25.85
2023-10-12T13:29:50.993Z,25.85
2023-10-12T13:32:19.976Z,25.86
2023-10-12T13:34:48.070Z,25.86
2023-10-12T13:37:16.078Z,25.86
2023-10-12T13:39:44.210Z,25.86
2023-10-12T13:42:13.971Z,25.86
2023-10-12T13:44:43.879Z,25.87
2023-10-12T13:47:14.381Z,25.88
2023-10-12T13:49:42.717Z,25.87
2023-10-12T13:52:11.293Z,25.88
2023-10-12T13:54:50.242Z,25.86
2023-10-12T13:57:19.732Z,25.86
2023-10-12T13:59:49.013Z,25.88
2023-10-12T14:02:17.420Z,25.88
2023-10-12T14:04:45.963Z,25.89
2023-10-12T14:07:14.160Z,25.90
2023-10-12T14:09:42.286Z,25.91
2023-10-12T14:12:11.803Z,25.91
2023-10-12T14:14:41.433Z,25.91
2023-10-12T14:17:09.727Z,25.93
2023-10-12T14:19:38.197Z,25.93
2023-10-12T14:22:09.110Z,25.94
2023-10-12T14:24:37.331Z,25.96
2023-10-12T14:27:07.788Z,25.99
2023-10-12T14:29:37.384Z,26.02
2023-10-12T14:32:09.762Z,26.05
2023-10-12T14:34:39.985Z,26.09
2023-10-12T14:37:14.646Z,26.13
2023-10-12T14:39:42.936Z,26.17
2023-10-12T14:42:11.890Z,26.18
2023-10-12T14:44:40.188Z,26.20
2023-10-12T14:47:09.636Z,26.20
2023-10-12T14:49:38.292Z,26.22
2023-10-12T14:52:09.425Z,26.23
2023-10-12T14:54:37.555Z,26.24
2023-10-12T14:57:05.972Z,26.25
2023-10-12T14:59:34.920Z,26.24
2023-10-12T15:02:11.181Z,26.22
2023-10-12T15:04:43.451Z,26.23
2023-10-12T15:07:13.752Z,26.25
2023-10-12T15:09:49.812Z,26.25
2023-10-12T15:12:18.353Z,26.24
2023-10-12T15:14:48.328Z,26.22
2023-10-12T15:17:20.421Z,26.20
2023-10-12T15:19:49.932Z,26.18
2023-10-12T15:22:19.576Z,26.15
2023-10-12T15:24:47.823Z,26.09
2023-10-12T15:27:17.060Z,26.06
2023-10-12T15:29:46.085Z,26.01
2023-10-12T15:32:14.361Z,25.98
2023-10-12T15:34:43.796Z,25.95
2023-10-12T15:37:14.869Z,25.91
2023-10-12T15:39:45.824Z,25.88
2023-10-12T15:42:14.005Z,25.85
2023-10-12T15:44:42.192Z,25.82
2023-10-12T15:47:10.251Z,25.79
2023-10-12T15:49:38.390Z,25.76
2023-10-12T15:52:06.753Z,25.74
2023-10-12T15:54:36.340Z,25.72
2023-10-12T15:57:05.376Z,25.67
2023-10-12T15:59:34.505Z,25.65
2023-10-12T16:02:03.311Z,25.63
2023-10-12T16:04:32.148Z,25.61
2023-10-12T16:07:06.506Z,25.59
2023-10-12T16:09:36.598Z,25.56
2023-10-12T16:12:04.985Z,25.55
2023-10-12T16:14:33.135Z,25.51
2023-10-12T16:17:02.037Z,25.50
2023-10-12T16:19:30.298Z,25.49
2023-10-12T16:21:58.799Z,25.47
2023-10-12T16:24:27.380Z,25.46
2023-10-12T16:26:56.780Z,25.44
2023-10-12T16:29:27.235Z,25.42
2023-10-12T16:31:55.441Z,25.43
2023-10-12T16:34:23.674Z,25.41
2023-10-12T16:36:51.940Z,25.39
2023-10-12T16:39:21.669Z,25.37
2023-10-12T16:41:50.376Z,25.35
2023-10-12T16:44:19.989Z,25.35
2023-10-12T16:46:48.391Z,25.32
2023-10-12T16:49:17.147Z,25.33
2023-10-12T16:51:46.314Z,25.31
2023-10-12T16:54:14.569Z,25.30
2023-10-12T16:56:44.840Z,25.29
2023-10-12T16:59:13.742Z,25.29
2023-10-12T17:01:43.297Z,25.28
2023-10-12T17:04:17.085Z,25.26
2023-10-12T17:06:45.618Z,25.23
2023-10-12T17:09:14.416Z,25.23
2023-10-12T17:11:42.500Z,25.22
2023-10-12T17:14:10.535Z,25.21
2023-10-12T17:16:39.062Z,25.20
2023-10-12T17:19:08.944Z,25.20
2023-10-12T17:21:36.979Z,25.18
2023-10-12T17:24:06.566Z,25.17
2023-10-12T17:26:35.854Z,25.17
2023-10-12T17:29:04.533Z,25.16
2023-10-12T17:31:32.726Z,25.15
2023-10-12T17:34:01.226Z,25.14
2023-10-12T17:36:31.065Z,25.14
2023-10-12T17:38:59.870Z,25.14
2023-10-12T17:41:27.935Z,25.12
2023-10-12T17:43:56.011Z,25.10
2023-10-12T17:46:25.982Z,25.09
2023-10-12T17:48:56.648Z,25.09
2023-10-12T17:51:25.164Z,25.08
2023-10-12T17:53:54.726Z,25.06
2023-10-12T17:56:22.793Z,25.06
2023-10-12T17:58:50.901Z,25.05
2023-10-12T18:01:19.510Z,25.03
2023-10-12T18:03:49.361Z,25.02
2023-10-12T18:06:17.958Z,25.01
2023-10-12T18:08:46.105Z,25.00
2023-10-12T18:11:15.785Z,24.99
2023-10-12T18:13:44.152Z,24.98
2023-10-12T18:16:13.631Z,24.97
2023-10-12T18:18:41.859Z,24.98
2023-10-12T18:21:10.008Z,24.97
2023-10-12T18:23:40.984Z,24.97
2023-10-12T18:26:09.261Z,24.96
2023-10-12T18:28:38.744Z,24.96
2023-10-12T18:31:07.582Z,24.95
2023-10-12T18:33:36.291Z,24.95
2023-10-12T18:36:05.447Z,24.94
2023-10-12T18:38:35.976Z,24.94
2023-10-12T18:41:05.870Z,24.93
2023-10-12T18:43:34.337Z,24.91
2023-10-12T18:46:04.983Z,24.91
2023-10-12T18:48:33.256Z,24.90
2023-10-12T18:51:02.078Z,24.89
2023-10-12T18:53:30.723Z,24.89
2023-10-12T18:56:02.587Z,24.87
2023-10-12T18:58:30.702Z,24.87
2023-10-12T19:01:01.149Z,24.87
2023-10-12T19:03:30.883Z,24.85
2023-10-12T19:05:59.023Z,24.85
2023-10-12T19:08:27.522Z,24.83
2023-10-12T19:10:55.650Z,24.83
2023-10-12T19:13:24.740Z,24.83
2023-10-12T19:15:53.970Z,24.82
2023-10-12T19:18:31.370Z,24.81
2023-10-12T19:21:00.955Z,24.81
2023-10-12T19:23:28.998Z,24.81
2023-10-12T19:25:57.963Z,24.79
2023-10-12T19:28:26.577Z,24.79
2023-10-12T19:30:55.904Z,24.79
2023-10-12T19:33:24.139Z,24.81
2023-10-12T19:35:52.220Z,24.79
2023-10-12T19:38:22.611Z,24.79
2023-10-12T19:40:51.795Z,24.78
2023-10-12T19:43:20.040Z,24.79
2023-10-12T19:45:48.212Z,24.76
2023-10-12T19:48:17.134Z,24.77
2023-10-12T19:50:45.531Z,24.76
2023-10-12T19:53:13.625Z,24.75
2023-10-12T19:55:45.394Z,24.74
2023-10-12T19:58:14.071Z,24.75
2023-10-12T20:00:42.179Z,24.75
2023-10-12T20:03:23.442Z,24.75
2023-10-12T20:05:52.075Z,24.75
2023-10-12T20:08:20.634Z,24.74
2023-10-12T20:10:50.253Z,24.74
2023-10-12T20:13:20.859Z,24.75
2023-10-12T20:15:49.933Z,24.75
2023-10-12T20:18:20.897Z,24.75
2023-10-12T20:20:49.287Z,24.75
2023-10-12T20:23:17.512Z,24.76
2023-10-12T20:25:45.944Z,24.75
2023-10-12T20:28:15.852Z,24.74
2023-10-12T20:30:45.093Z,24.75
2023-10-12T20:33:13.405Z,24.75
2023-10-12T20:35:41.648Z,24.74
2023-10-12T20:38:12.690Z,24.75
2023-10-12T20:40:40.956Z,24.74
2023-10-12T20:43:10.451Z,24.74
2023-10-12T20:45:41.775Z,24.74
2023-10-12T20:48:10.856Z,24.74
2023-10-12T20:50:40.218Z,24.73
2023-10-12T20:53:10.428Z,24.73
2023-10-12T20:55:44.537Z,24.72
2023-10-12T20:58:16.117Z,24.71
2023-10-12T21:00:46.580Z,24.71
2023-10-12T21:03:22.279Z,24.71
2023-10-12T21:05:51.035Z,24.71
2023-10-12T21:08:22.608Z,24.72
2023-10-12T21:10:59.427Z,24.70
2023-10-12T21:13:28.172Z,24.70
2023-10-12T21:16:02.240Z,24.68
2023-10-12T21:18:36.365Z,24.69
2023-10-12T21:21:19.467Z,24.69
2023-10-12T21:23:51.664Z,24.69
2023-10-12T21:26:22.668Z,24.66
2023-10-12T21:28:55.719Z,24.68
2023-10-12T21:31:29.591Z,24.67
2023-10-12T21:34:00.425Z,24.66
2023-10-12T21:36:30.335Z,24.65
2023-10-12T21:38:58.689Z,24.65
2023-10-12T21:41:36.724Z,24.66
2023-10-12T21:44:05.901Z,24.64
2023-10-12T21:46:35.931Z,24.64
2023-10-12T21:49:04.586Z,24.62
2023-10-12T21:51:34.265Z,24.62
2023-10-12T21:54:05.508Z,24.60
2023-10-12T21:56:33.678Z,24.60
2023-10-12T21:59:01.834Z,24.60
2023-10-12T22:01:35.275Z,24.59
2023-10-12T22:04:05.987Z,24.58
2023-10-12T22:06:34.805Z,24.57
2023-10-12T22:09:05.669Z,24.55
2023-10-12T22:11:39.981Z,24.57
2023-10-12T22:14:16.983Z,24.55
2023-10-12T22:16:51.218Z,24.55
2023-10-12T22:19:21.695Z,24.54
2023-10-12T22:21:50.413Z,24.54
2023-10-12T22:24:18.757Z,24.53
2023-10-12T22:26:47.877Z,24.54
2023-10-12T22:29:16.246Z,24.54
2023-10-12T22:31:45.640Z,24.55
2023-10-12T22:34:16.914Z,24.54
2023-10-12T22:36:48.086Z,24.54
2023-10-12T22:39:18.238Z,24.54
2023-10-12T22:41:50.248Z,24.53
2023-10-12T22:44:19.105Z,24.52
2023-10-12T22:46:47.240Z,24.53
2023-10-12T22:49:15.617Z,24.53
2023-10-12T22:51:43.791Z,24.52
2023-10-12T22:54:13.324Z,24.51
2023-10-12T22:56:43.067Z,24.50
2023-10-12T22:59:11.268Z,24.50
2023-10-12T23:01:40.272Z,24.50
2023-10-12T23:04:09.249Z,24.49
2023-10-12T23:06:37.511Z,24.48
2023-10-12T23:09:08.530Z,24.48
2023-10-12T23:11:38.680Z,24.48
2023-10-12T23:14:10.260Z,24.46
2023-10-12T23:16:51.624Z,24.46
2023-10-12T23:19:29.971Z,24.46
2023-10-12T23:22:01.778Z,24.45
2023-10-12T23:24:29.939Z,24.44
2023-10-12T23:27:00.201Z,24.44
2023-10-12T23:29:28.833Z,24.44
2023-10-12T23:31:57.031Z,24.44
2023-10-12T23:34:27.274Z,24.43
2023-10-12T23:36:59.894Z,24.45
2023-10-12T23:39:36.797Z,24.44
2023-10-12T23:42:08.895Z,24.44
2023-10-12T23:45:02.762Z,24.44
2023-10-12T23:47:43.015Z,24.43
2023-10-12T23:50:28.884Z,24.43
2023-10-12T23:52:57.836Z,24.42
2023-10-12T23:55:31.900Z,24.42
2023-10-12T23:58:08.212Z,24.42
